ADDS METAR Data INFO
IDs: Format: Raw Decoded Include TAF

Data at: 2114 UTC 22 Oct 2017

KHNZ 222105Z AUTO 14005KT 10SM CLR 23/10 A3027 RMK AO2 T02320101
KHNZ 222045Z AUTO 13004KT 10SM CLR 23/09 A3028 RMK AO2 T02340092
KHNZ 222025Z AUTO 12003KT 10SM CLR 24/09 A3028 RMK AO2 T02380092
KHNZ 222005Z AUTO 13003KT 10SM CLR 24/09 A3029 RMK AO2 T02350091
KHNZ 221945Z AUTO 14004KT 10SM CLR 24/09 A3029 RMK AO2 T02370093
KHNZ 221925Z AUTO 13003KT 10SM CLR 24/10 A3029 RMK AO2 T02400100
KHNZ 221905Z AUTO 13008KT 10SM CLR 24/10 A3030 RMK AO2 T02380095
KHNZ 221845Z AUTO 17006KT 10SM CLR 24/10 A3030 RMK AO2 T02380095
KHNZ 221825Z AUTO 15004KT 10SM CLR 24/10 A3031 RMK AO2 T02360098
KHNZ 221805Z AUTO 00000KT 10SM CLR 23/10 A3031 RMK AO2 T02320104
KHNZ 221745Z AUTO 11004KT 10SM CLR 23/11 A3032 RMK AO2 T02340105
KHNZ 221725Z AUTO 15005KT 10SM CLR 23/11 A3034 RMK AO2 T02270106
KHNZ 221705Z AUTO 13004KT 10SM CLR 23/11 A3035 RMK AO2 T02290110
KHNZ 221645Z AUTO 00000KT 10SM CLR 22/11 A3036 RMK AO2 T02200112
KHNZ 221625Z AUTO 18005KT 10SM CLR 22/12 A3037 RMK AO2 T02200123
KHNZ 221605Z AUTO 15005KT 10SM CLR 22/13 A3037 RMK AO2 T02170125
KHNZ 221545Z AUTO 17004KT 10SM CLR 21/12 A3038 RMK AO2 T02130124
KHNZ 221525Z AUTO 13006KT 10SM CLR 21/13 A3037 RMK AO2 T02070125
KHNZ 221505Z AUTO 00000KT 10SM CLR 20/13 A3038 RMK AO2 T02010133
KHNZ 221445Z AUTO 16003KT 10SM CLR 19/14 A3038 RMK AO2 T01930136
KHNZ 221425Z AUTO 00000KT 10SM CLR 19/13 A3038 RMK AO2 T01860133
KHNZ 221405Z AUTO 15003KT 10SM CLR 18/12 A3038 RMK AO2 T01800121
KHNZ 221345Z AUTO 00000KT 10SM CLR 17/13 A3038 RMK AO2 T01700133
KHNZ 221325Z AUTO 00000KT 10SM CLR 15/13 A3038 RMK AO2 T01470127
KHNZ 221245Z AUTO 00000KT 10SM CLR 11/11 A3038 RMK AO2 T01130106
KHNZ 221225Z AUTO 00000KT 7SM CLR 11/10 A3037 RMK AO2 T01060101
KHNZ 221205Z AUTO 00000KT 5SM BR CLR 11/10 A3037 RMK AO2 T01090103
KHNZ 221145Z AUTO 00000KT 7SM CLR 10/10 A3036 RMK AO2 T01010095
KHNZ 221125Z AUTO 00000KT 10SM CLR 11/10 A3036 RMK AO2 T01130103
KHNZ 221105Z AUTO 00000KT 10SM CLR 11/10 A3035 RMK AO2 T01060096
KHNZ 221045Z AUTO 00000KT 10SM CLR 12/11 A3035 RMK AO2 T01190107
KHNZ 221025Z AUTO 00000KT 10SM CLR 12/11 A3035 RMK AO2 T01170105
KHNZ 221005Z AUTO 00000KT 10SM CLR 11/10 A3035 RMK AO2 T01130103
KHNZ 220945Z AUTO 00000KT 10SM CLR 11/10 A3035 RMK AO2 T01140102
KHNZ 220925Z AUTO 00000KT 10SM CLR 11/10 A3034 RMK AO2 T01140101
KHNZ 220905Z AUTO 00000KT 10SM CLR 11/10 A3034 RMK AO2 T01120101
KHNZ 220845Z AUTO 00000KT 10SM CLR 12/10 A3033 RMK AO2 T01150103
KHNZ 220825Z AUTO 00000KT 10SM CLR 11/10 A3033 RMK AO2 T01120100
KHNZ 220805Z AUTO 00000KT 10SM CLR 12/10 A3033 RMK AO2 T01150101
KHNZ 220745Z AUTO 00000KT 10SM CLR 12/10 A3033 RMK AO2 T01160101
KHNZ 220725Z AUTO 17003KT 10SM CLR 12/11 A3033 RMK AO2 T01220105
KHNZ 220705Z AUTO 17004KT 10SM CLR 13/11 A3033 RMK AO2 T01310108
KHNZ 220645Z AUTO 17003KT 10SM CLR 13/11 A3033 RMK AO2 T01270105
KHNZ 220625Z AUTO 00000KT 10SM CLR 13/11 A3034 RMK AO2 T01250105
KHNZ 220605Z AUTO 15003KT 10SM CLR 13/11 A3034 RMK AO2 T01340105
KHNZ 220545Z AUTO 17003KT 10SM CLR 14/11 A3034 RMK AO2 T01400105
KHNZ 220525Z AUTO 16003KT 10SM CLR 15/11 A3034 RMK AO2 T01460106
KHNZ 220505Z AUTO 17003KT 10SM CLR 14/10 A3034 RMK AO2 T01380103
KHNZ 220445Z AUTO 16003KT 10SM CLR 13/10 A3034 RMK AO2 T01310104
KHNZ 220425Z AUTO 00000KT 10SM CLR 13/11 A3034 RMK AO2 T01320105
KHNZ 220405Z AUTO 00000KT 10SM CLR 12/11 A3034 RMK AO2 T01240107
KHNZ 220345Z AUTO 00000KT 10SM CLR 13/11 A3035 RMK AO2 T01330107
KHNZ 220325Z AUTO 00000KT 10SM CLR 14/11 A3035 RMK AO2 T01360106
KHNZ 220305Z AUTO 00000KT 10SM CLR 14/11 A3034 RMK AO2 T01400110
KHNZ 220245Z AUTO 00000KT 10SM CLR 14/11 A3035 RMK AO2 T01430111
KHNZ 220225Z AUTO 00000KT 10SM CLR 14/11 A3035 RMK AO2 T01410111
KHNZ 220205Z AUTO 00000KT 10SM CLR 14/11 A3035 RMK AO2 T01420112
KHNZ 220145Z AUTO 00000KT 10SM CLR 15/11 A3035 RMK AO2 T01450112
KHNZ 220125Z AUTO 00000KT 10SM CLR 16/11 A3034 RMK AO2 T01560110
KHNZ 220105Z AUTO 00000KT 10SM CLR 16/11 A3034 RMK AO2 T01580112
KHNZ 220045Z AUTO 13003KT 10SM CLR 18/11 A3034 RMK AO2 T01760110
KHNZ 220025Z AUTO 14003KT 10SM CLR 18/11 A3035 RMK AO2 T01830111
KHNZ 220005Z AUTO 13004KT 10SM CLR 19/11 A3035 RMK AO2 T01850114
KHNZ 212345Z AUTO 13004KT 10SM CLR 18/12 A3034 RMK AO2 T01810115
KHNZ 212325Z AUTO 00000KT 10SM CLR 18/12 A3034 RMK AO2 T01750118
KHNZ 212305Z AUTO 00000KT 10SM CLR 18/12 A3033 RMK AO2 T01780118
KHNZ 212245Z AUTO 00000KT 10SM CLR 19/12 A3033 RMK AO2 T01870115
KHNZ 212225Z AUTO 11004KT 10SM CLR 20/11 A3032 RMK AO2 T01960111
KHNZ 212205Z AUTO 11004KT 10SM CLR 20/12 A3032 RMK AO2 T02030116
KHNZ 212145Z AUTO 10003KT 10SM CLR 21/12 A3032 RMK AO2 T02100123
KHNZ 212125Z AUTO 09003KT 10SM CLR 22/12 A3031 RMK AO2 T02190120
KHNZ 212105Z AUTO 10004KT 10SM CLR 23/12 A3031 RMK AO2 T02260115
KHNZ 212045Z AUTO 09005KT 10SM CLR 23/11 A3030 RMK AO2 T02320110
KHNZ 212025Z AUTO 08004KT 10SM CLR 23/11 A3031 RMK AO2 T02340108
KHNZ 212005Z AUTO 02003KT 10SM CLR 23/10 A3031 RMK AO2 T02300103
KHNZ 211945Z AUTO 00000KT 10SM CLR 24/11 A3031 RMK AO2 T02380106
KHNZ 211925Z AUTO 05004KT 10SM CLR 24/10 A3030 RMK AO2 T02390103
KHNZ 211905Z AUTO 00000KT 10SM CLR 24/10 A3031 RMK AO2 T02350101
KHNZ 211845Z AUTO 10004KT 10SM CLR 24/11 A3031 RMK AO2 T02390105
KHNZ 211825Z AUTO 00000KT 10SM CLR 23/11 A3031 RMK AO2 T02340107
KHNZ 211805Z AUTO 09004KT 10SM CLR 24/11 A3031 RMK AO2 T02380112
KHNZ 211745Z AUTO 00000KT 10SM CLR 23/11 A3032 RMK AO2 T02320105
KHNZ 211725Z AUTO 00000KT 10SM CLR 23/10 A3032 RMK AO2 T02280102
KHNZ 211705Z AUTO 09003KT 10SM CLR 23/10 A3033 RMK AO2 T02280104
KHNZ 211645Z AUTO 00000KT 10SM CLR 23/11 A3034 RMK AO2 T02250107
KHNZ 211625Z AUTO 09005KT 10SM CLR 22/11 A3035 RMK AO2 T02210105
KHNZ 211605Z AUTO 00000KT 10SM CLR 22/11 A3035 RMK AO2 T02170106
KHNZ 211545Z AUTO 00000KT 10SM CLR 22/11 A3035 RMK AO2 T02150108
KHNZ 211525Z AUTO 00000KT 10SM CLR 22/12 A3035 RMK AO2 T02150116
KHNZ 211505Z AUTO 00000KT 10SM CLR 20/11 A3036 RMK AO2 T01980108
KHNZ 211445Z AUTO 00000KT 10SM CLR 19/11 A3036 RMK AO2 T01920110
KHNZ 211425Z AUTO 00000KT 10SM CLR 18/11 A3036 RMK AO2 T01790107
KHNZ 211405Z AUTO 00000KT 10SM CLR 17/11 A3036 RMK AO2 T01720113
KHNZ 211345Z AUTO 00000KT 10SM CLR 17/12 A3036 RMK AO2 T01660120
KHNZ 211325Z AUTO 00000KT 10SM CLR 15/12 A3035 RMK AO2 T01510122
KHNZ 211305Z AUTO 00000KT 10SM CLR 13/12 A3035 RMK AO2 T01340115
KHNZ 211245Z AUTO 00000KT 10SM CLR 12/10 A3035 RMK AO2 T01170104
KHNZ 211225Z AUTO 00000KT 10SM CLR 10/09 A3034 RMK AO2 T00950090
KHNZ 211205Z AUTO 00000KT 10SM CLR 08/08 A3033 RMK AO2 T00810077
KHNZ 211145Z AUTO 00000KT 4SM BR CLR 08/07 A3032 RMK AO2 T00770074
KHNZ 211125Z AUTO 00000KT 10SM CLR 08/08 A3032 RMK AO2 T00800075
KHNZ 211105Z AUTO 00000KT 7SM CLR 08/08 A3031 RMK AO2 T00830080
KHNZ 211045Z AUTO 00000KT 10SM CLR 08/07 A3030 RMK AO2 T00780073
KHNZ 211025Z AUTO 00000KT 10SM CLR 08/08 A3030 RMK AO2 T00810075
KHNZ 211005Z AUTO 00000KT 10SM CLR 08/08 A3029 RMK AO2 T00820077
KHNZ 210945Z AUTO 00000KT 10SM CLR 08/07 A3029 RMK AO2 T00790074
KHNZ 210925Z AUTO 00000KT 10SM CLR 08/08 A3028 RMK AO2 T00820076